Time;durP1;ratioP1;P1;durP2;ratioP2;P2;SDS_P1;SDS_P2;PMS_P1;PMS_P2;Temp;Humidity;BMP_temperature;BMP_pressure;BME280_temperature;BME280_humidity;BME280_pressure;Samples;Min_cycle;Max_cycle;Signal;HPM_P1;HPM_P2
2023/07/14 00:01:30;;;;;;;;;;;24.60;99.90;;;;;;5113829;28;20002;-76
2023/07/14 00:03:56;;;;;;;;;;;24.60;99.90;;;;;;5114021;28;19956;-76
2023/07/14 00:06:21;;;;;;;;;;;24.60;99.90;;;;;;5114119;28;19904;-77
2023/07/14 00:08:48;;;;;;;;;;;24.60;99.90;;;;;;5114238;28;19903;-78
2023/07/14 00:11:24;;;;;;;;;;;24.60;99.90;;;;;;5113970;28;19911;-76
2023/07/14 00:13:50;;;;;;;;;;;24.60;99.90;;;;;;5095636;28;20302;-77
2023/07/14 00:16:25;;;;;;;;;;;24.60;99.90;;;;;;5113959;28;19918;-78
2023/07/14 00:18:51;;;;;;;;;;;24.70;99.90;;;;;;5113605;28;19949;-77
2023/07/14 00:21:22;;;;;;;;;;;24.70;99.90;;;;;;5095548;28;19908;-76
2023/07/14 00:23:48;;;;;;;;;;;24.70;99.90;;;;;;5114036;28;19903;-77
2023/07/14 00:26:16;;;;;;;;;;;24.70;99.90;;;;;;5113791;28;19903;-76
2023/07/14 00:28:43;;;;;;;;;;;24.70;99.90;;;;;;5114229;28;19910;-76
2023/07/14 00:31:13;;;;;;;;;;;24.60;99.90;;;;;;5113770;28;19957;-77
2023/07/14 00:33:39;;;;;;;;;;;24.60;99.90;;;;;;5113548;28;19926;-78
2023/07/14 00:36:06;;;;;;;;;;;24.60;99.90;;;;;;5095626;28;19911;-79
2023/07/14 00:38:34;;;;;;;;;;;24.60;99.90;;;;;;5114154;28;19908;-79
2023/07/14 00:41:00;;;;;;;;;;;24.60;99.90;;;;;;5113724;28;19904;-78
2023/07/14 00:43:26;;;;;;;;;;;24.50;99.90;;;;;;5113677;28;20316;-77
2023/07/14 00:45:54;;;;;;;;;;;24.50;99.90;;;;;;5113639;28;19995;-79
2023/07/14 00:48:21;;;;;;;;;;;24.50;99.90;;;;;;5113961;28;19904;-78
2023/07/14 00:51:02;;;;;;;;;;;24.50;99.90;;;;;;5113493;28;19904;-76
2023/07/14 00:53:38;;;;;;;;;;;24.50;99.90;;;;;;5114026;28;19931;-78
2023/07/14 00:56:10;;;;;;;;;;;24.50;99.90;;;;;;5113430;28;19911;-77
2023/07/14 00:58:36;;;;;;;;;;;24.50;99.90;;;;;;5113963;28;19915;-77
2023/07/14 01:01:02;;;;;;;;;;;24.50;99.90;;;;;;5113215;28;20022;-77
2023/07/14 01:03:28;;;;;;;;;;;24.60;99.90;;;;;;5113596;28;19951;-77
2023/07/14 01:05:55;;;;;;;;;;;24.60;99.90;;;;;;5113959;28;19904;-77
2023/07/14 01:08:22;;;;;;;;;;;24.60;99.90;;;;;;5113673;28;19904;-76
2023/07/14 01:10:48;;;;;;;;;;;24.60;99.90;;;;;;5114030;28;19926;-77
2023/07/14 01:13:14;;;;;;;;;;;24.60;99.90;;;;;;5117951;28;19911;-76
2023/07/14 01:15:40;;;;;;;;;;;24.60;99.90;;;;;;5117210;28;19911;-78
2023/07/14 01:18:07;;;;;;;;;;;24.60;99.90;;;;;;5117478;28;19914;-77
2023/07/14 01:20:35;;;;;;;;;;;24.60;99.90;;;;;;5117481;28;19910;-77
2023/07/14 01:23:05;;;;;;;;;;;24.60;99.90;;;;;;5117179;28;19980;-76
2023/07/14 01:25:42;;;;;;;;;;;24.60;99.90;;;;;;5117121;28;19904;-77
2023/07/14 01:28:13;;;;;;;;;;;24.60;99.90;;;;;;5117724;28;19911;-78
2023/07/14 01:30:39;;;;;;;;;;;24.60;99.90;;;;;;5117002;28;19910;-77
2023/07/14 01:33:08;;;;;;;;;;;24.60;99.90;;;;;;5117198;28;19904;-77
2023/07/14 01:35:38;;;;;;;;;;;24.60;99.90;;;;;;5116829;28;19988;-78
2023/07/14 01:38:04;;;;;;;;;;;24.60;99.90;;;;;;5116940;28;19904;-77
2023/07/14 01:40:32;;;;;;;;;;;24.50;99.90;;;;;;5116829;28;19929;-77
2023/07/14 01:43:03;;;;;;;;;;;24.40;99.90;;;;;;5116855;28;19904;-77
2023/07/14 01:45:37;;;;;;;;;;;24.50;99.90;;;;;;5117044;28;19904;-78
2023/07/14 01:48:04;;;;;;;;;;;24.40;99.90;;;;;;5116846;28;19903;-78
2023/07/14 01:50:32;;;;;;;;;;;24.40;99.90;;;;;;5116529;28;19903;-76
2023/07/14 01:53:01;;;;;;;;;;;24.30;99.90;;;;;;5116876;28;19903;-77
2023/07/14 01:55:32;;;;;;;;;;;24.30;99.90;;;;;;5116422;28;19912;-77
2023/07/14 01:57:59;;;;;;;;;;;24.30;99.90;;;;;;5116784;28;20355;-78
2023/07/14 02:00:25;;;;;;;;;;;24.30;99.90;;;;;;5116433;28;19904;-79
2023/07/14 02:02:53;;;;;;;;;;;24.20;99.90;;;;;;5116123;28;19916;-77
2023/07/14 02:05:32;;;;;;;;;;;24.20;99.90;;;;;;5098009;28;19904;-77
2023/07/14 02:08:02;;;;;;;;;;;24.20;99.90;;;;;;5117035;28;20332;-77
2023/07/14 02:10:28;;;;;;;;;;;24.20;99.90;;;;;;5098003;28;20290;-78
2023/07/14 02:12:54;;;;;;;;;;;24.10;99.90;;;;;;5116881;28;20019;-77
2023/07/14 02:15:25;;;;;;;;;;;24.20;99.90;;;;;;5116459;28;19918;-76
2023/07/14 02:17:52;;;;;;;;;;;24.10;99.90;;;;;;5116658;28;19990;-77
2023/07/14 02:20:20;;;;;;;;;;;24.20;99.90;;;;;;5116678;28;19903;-78
2023/07/14 02:22:47;;;;;;;;;;;24.20;99.90;;;;;;5116036;28;19907;-77
2023/07/14 02:25:15;;;;;;;;;;;24.10;99.90;;;;;;5116047;28;19927;-77
2023/07/14 02:27:41;;;;;;;;;;;24.10;99.90;;;;;;5116027;28;19903;-77
2023/07/14 02:30:13;;;;;;;;;;;24.10;99.90;;;;;;5115976;28;19922;-77
2023/07/14 02:32:41;;;;;;;;;;;24.20;99.90;;;;;;5115771;28;19903;-77
2023/07/14 02:35:17;;;;;;;;;;;24.20;99.90;;;;;;5097558;28;19911;-77
2023/07/14 02:38:04;;;;;;;;;;;24.20;99.90;;;;;;5116115;28;19904;-78
2023/07/14 02:40:49;;;;;;;;;;;24.10;99.90;;;;;;5115827;28;19903;-77
2023/07/14 02:43:16;;;;;;;;;;;24.10;99.90;;;;;;5115737;28;19929;-77
2023/07/14 02:45:53;;;;;;;;;;;24.10;99.90;;;;;;5115692;28;20002;-78
2023/07/14 02:48:22;;;;;;;;;;;24.20;99.90;;;;;;5115667;28;19951;-77
2023/07/14 02:50:48;;;;;;;;;;;24.20;99.90;;;;;;5097013;28;19914;-77
2023/07/14 02:53:16;;;;;;;;;;;24.30;99.90;;;;;;5115499;28;19998;-77
2023/07/14 02:55:42;;;;;;;;;;;24.30;99.90;;;;;;5097054;28;19933;-78
2023/07/14 02:58:08;;;;;;;;;;;24.20;99.90;;;;;;5115650;28;19998;-77
2023/07/14 03:00:34;;;;;;;;;;;24.20;99.90;;;;;;5115291;28;20328;-78
2023/07/14 03:03:01;;;;;;;;;;;24.20;99.90;;;;;;5096645;28;20402;-78
2023/07/14 03:05:27;;;;;;;;;;;24.30;99.90;;;;;;5096797;28;20378;-77
2023/07/14 03:07:52;;;;;;;;;;;24.20;99.90;;;;;;5115461;28;19934;-78
2023/07/14 03:10:18;;;;;;;;;;;24.20;99.90;;;;;;5115104;28;20347;-78
2023/07/14 03:12:44;;;;;;;;;;;24.30;99.90;;;;;;5115454;28;19994;-77
2023/07/14 03:15:10;;;;;;;;;;;24.30;99.90;;;;;;5115168;28;19918;-78
2023/07/14 03:17:35;;;;;;;;;;;24.20;99.90;;;;;;5096567;28;20378;-78
2023/07/14 03:20:02;;;;;;;;;;;24.20;99.90;;;;;;5114966;28;19904;-79
2023/07/14 03:22:30;;;;;;;;;;;24.20;99.90;;;;;;5114761;28;20315;-78
2023/07/14 03:24:58;;;;;;;;;;;24.20;99.90;;;;;;5115424;28;19908;-77
2023/07/14 03:27:24;;;;;;;;;;;24.20;99.90;;;;;;5114780;28;19903;-78
2023/07/14 03:29:49;;;;;;;;;;;24.20;99.90;;;;;;5114883;28;19910;-78
2023/07/14 03:32:15;;;;;;;;;;;24.30;99.90;;;;;;5114780;28;19949;-77
2023/07/14 03:34:42;;;;;;;;;;;24.30;99.90;;;;;;5113956;28;19918;-77
2023/07/14 03:37:08;;;;;;;;;;;24.30;99.90;;;;;;5114989;28;19903;-77
2023/07/14 03:39:33;;;;;;;;;;;24.20;99.90;;;;;;5115155;28;19958;-79
2023/07/14 03:42:00;;;;;;;;;;;24.20;99.90;;;;;;5114910;28;19911;-78
2023/07/14 03:44:26;;;;;;;;;;;24.10;99.90;;;;;;5114662;28;19903;-77
2023/07/14 03:46:52;;;;;;;;;;;24.10;99.90;;;;;;5114461;28;19925;-76
2023/07/14 03:49:18;;;;;;;;;;;24.10;99.90;;;;;;5114418;28;19911;-79
2023/07/14 03:51:44;;;;;;;;;;;24.00;99.90;;;;;;5114363;28;19904;-78
2023/07/14 03:54:10;;;;;;;;;;;24.00;99.90;;;;;;5114919;28;19953;-78
2023/07/14 03:56:36;;;;;;;;;;;23.90;99.90;;;;;;5114621;28;20511;-79
2023/07/14 03:59:04;;;;;;;;;;;24.00;99.90;;;;;;5114402;28;19904;-77
2023/07/14 04:01:30;;;;;;;;;;;23.90;99.90;;;;;;5114132;28;20359;-77
2023/07/14 04:03:56;;;;;;;;;;;23.90;99.90;;;;;;5114387;28;19957;-78
2023/07/14 04:06:22;;;;;;;;;;;23.90;99.90;;;;;;5114925;28;19903;-76
2023/07/14 04:08:50;;;;;;;;;;;23.90;99.90;;;;;;5114453;28;20347;-77
2023/07/14 04:11:16;;;;;;;;;;;24.00;99.90;;;;;;5114081;28;19915;-79
2023/07/14 04:13:42;;;;;;;;;;;24.00;99.90;;;;;;5114176;28;19993;-78
2023/07/14 04:16:07;;;;;;;;;;;24.10;99.90;;;;;;5095816;28;19911;-78
2023/07/14 04:18:34;;;;;;;;;;;24.20;99.90;;;;;;5114137;28;19904;-78
2023/07/14 04:21:06;;;;;;;;;;;24.30;99.90;;;;;;5114449;28;19942;-78
2023/07/14 04:23:32;;;;;;;;;;;24.30;99.90;;;;;;5114270;28;20434;-77
2023/07/14 04:25:58;;;;;;;;;;;24.30;99.90;;;;;;5113999;28;19911;-77
2023/07/14 04:28:24;;;;;;;;;;;24.40;99.90;;;;;;5113912;28;19953;-78
2023/07/14 04:30:53;;;;;;;;;;;24.40;99.90;;;;;;5113883;28;19904;-78
2023/07/14 04:33:21;;;;;;;;;;;24.50;99.90;;;;;;5113647;28;19904;-78
2023/07/14 04:35:47;;;;;;;;;;;24.60;99.90;;;;;;5095467;28;19920;-77
2023/07/14 04:38:14;;;;;;;;;;;24.60;99.90;;;;;;5114097;28;19904;-78
2023/07/14 04:40:40;;;;;;;;;;;24.70;99.90;;;;;;5113978;28;19946;-77
2023/07/14 04:43:06;;;;;;;;;;;24.90;99.90;;;;;;5113727;28;19999;-78
2023/07/14 04:45:36;;;;;;;;;;;25.00;99.90;;;;;;5114452;28;19991;-77
2023/07/14 04:48:02;;;;;;;;;;;25.10;99.90;;;;;;5117998;28;19954;-79
2023/07/14 04:50:27;;;;;;;;;;;25.10;99.90;;;;;;5118050;28;19912;-78
2023/07/14 04:52:53;;;;;;;;;;;25.20;99.90;;;;;;5117793;28;19903;-76
2023/07/14 04:55:19;;;;;;;;;;;25.30;99.90;;;;;;5117960;28;19982;-77
2023/07/14 04:57:45;;;;;;;;;;;25.30;99.90;;;;;;5117872;28;19908;-77
2023/07/14 05:00:11;;;;;;;;;;;25.40;99.90;;;;;;5118231;28;19904;-78
2023/07/14 05:02:37;;;;;;;;;;;25.50;99.90;;;;;;5117395;28;19932;-77
2023/07/14 05:05:12;;;;;;;;;;;25.60;99.90;;;;;;5117472;28;19955;-77
2023/07/14 05:07:38;;;;;;;;;;;25.80;99.90;;;;;;5099186;28;19911;-78
2023/07/14 05:10:04;;;;;;;;;;;26.60;99.90;;;;;;5117918;28;19904;-78
2023/07/14 05:12:30;;;;;;;;;;;28.20;99.90;;;;;;5117635;28;19926;-77
2023/07/14 05:14:56;;;;;;;;;;;29.80;99.90;;;;;;5117168;28;19916;-77
2023/07/14 05:17:21;;;;;;;;;;;31.30;99.90;;;;;;5117590;28;19908;-77
2023/07/14 05:19:47;;;;;;;;;;;32.50;99.90;;;;;;5116866;28;19904;-78
2023/07/14 05:22:13;;;;;;;;;;;33.70;98.50;;;;;;5099089;28;19922;-78
2023/07/14 05:24:39;;;;;;;;;;;35.00;96.90;;;;;;5117637;28;19903;-77
2023/07/14 05:27:05;;;;;;;;;;;35.70;95.40;;;;;;5117263;28;19923;-78
2023/07/14 05:29:31;;;;;;;;;;;36.30;94.60;;;;;;5117425;28;19929;-78
2023/07/14 05:31:56;;;;;;;;;;;36.70;94.00;;;;;;5116980;28;19949;-77
2023/07/14 05:34:22;;;;;;;;;;;36.90;93.40;;;;;;5116915;28;19914;-78
2023/07/14 05:36:48;;;;;;;;;;;37.40;91.70;;;;;;5117149;28;19957;-78
2023/07/14 05:39:14;;;;;;;;;;;36.60;91.60;;;;;;5117038;28;20274;-78
2023/07/14 05:41:39;;;;;;;;;;;37.40;90.40;;;;;;5116917;28;19931;-77
2023/07/14 05:44:05;;;;;;;;;;;38.00;89.60;;;;;;5117375;28;20260;-78
2023/07/14 05:46:31;;;;;;;;;;;38.80;89.30;;;;;;5116807;28;19911;-78
2023/07/14 05:48:57;;;;;;;;;;;38.50;90.20;;;;;;5098158;28;20334;-77
2023/07/14 05:51:23;;;;;;;;;;;38.50;90.40;;;;;;5116711;28;19950;-79
2023/07/14 05:53:48;;;;;;;;;;;38.90;90.60;;;;;;5117037;28;19903;-77
2023/07/14 05:56:14;;;;;;;;;;;38.80;90.40;;;;;;5116304;28;19912;-78
2023/07/14 05:58:40;;;;;;;;;;;38.30;90.90;;;;;;5116477;28;19903;-77
2023/07/14 06:01:07;;;;;;;;;;;38.70;91.30;;;;;;5097293;28;19903;-79
2023/07/14 06:03:33;;;;;;;;;;;38.20;90.80;;;;;;5116193;28;19911;-78
2023/07/14 06:05:59;;;;;;;;;;;38.60;90.90;;;;;;5116999;28;20275;-77
2023/07/14 06:08:25;;;;;;;;;;;39.20;90.50;;;;;;5116503;28;20348;-79
2023/07/14 06:10:51;;;;;;;;;;;38.90;90.70;;;;;;5098595;28;19999;-79
2023/07/14 06:13:17;;;;;;;;;;;38.60;90.40;;;;;;5115982;28;19915;-78
2023/07/14 06:15:48;;;;;;;;;;;37.80;91.00;;;;;;5116057;28;19912;-78
2023/07/14 06:18:14;;;;;;;;;;;38.90;90.80;;;;;;5097688;28;20381;-79
2023/07/14 06:20:39;;;;;;;;;;;38.60;90.70;;;;;;5116012;28;20002;-79
2023/07/14 06:23:05;;;;;;;;;;;39.10;90.10;;;;;;5116042;28;19956;-77
2023/07/14 06:25:31;;;;;;;;;;;38.40;90.80;;;;;;5115951;28;20333;-77
2023/07/14 06:27:57;;;;;;;;;;;38.60;90.50;;;;;;5115946;28;20419;-77
2023/07/14 06:30:25;;;;;;;;;;;39.70;90.10;;;;;;5097238;28;19910;-77
2023/07/14 06:32:51;;;;;;;;;;;40.10;87.70;;;;;;5115527;28;19959;-78
2023/07/14 06:35:18;;;;;;;;;;;40.50;86.30;;;;;;5097231;28;19915;-78
2023/07/14 06:37:43;;;;;;;;;;;42.00;85.20;;;;;;5115601;28;19910;-79
2023/07/14 06:40:10;;;;;;;;;;;42.10;84.60;;;;;;5115798;28;19998;-79
2023/07/14 06:42:39;;;;;;;;;;;41.80;84.70;;;;;;5115597;28;19911;-78
2023/07/14 06:45:05;;;;;;;;;;;41.30;84.20;;;;;;5115749;28;20271;-79
2023/07/14 06:47:32;;;;;;;;;;;41.00;85.50;;;;;;5115843;28;20340;-79
2023/07/14 06:49:58;;;;;;;;;;;40.30;87.00;;;;;;5115308;28;19910;-79
2023/07/14 06:52:24;;;;;;;;;;;40.00;87.60;;;;;;5115503;28;19935;-79
2023/07/14 06:54:51;;;;;;;;;;;39.90;87.60;;;;;;5115674;28;19981;-79
2023/07/14 06:57:17;;;;;;;;;;;40.40;86.40;;;;;;5115475;28;19962;-79
2023/07/14 06:59:43;;;;;;;;;;;40.10;86.70;;;;;;5115531;28;19911;-80
2023/07/14 07:02:12;;;;;;;;;;;40.60;86.50;;;;;;5096817;28;19993;-80
2023/07/14 07:04:37;;;;;;;;;;;40.00;86.90;;;;;;5115231;28;19962;-79
2023/07/14 07:07:04;;;;;;;;;;;39.80;88.40;;;;;;5097062;28;19943;-78
2023/07/14 07:09:30;;;;;;;;;;;40.10;88.30;;;;;;5114208;28;19926;-80
2023/07/14 07:11:55;;;;;;;;;;;39.00;87.90;;;;;;5115538;28;20353;-80
2023/07/14 07:14:21;;;;;;;;;;;39.90;86.90;;;;;;5115029;28;19956;-79
2023/07/14 07:16:47;;;;;;;;;;;39.30;87.30;;;;;;5115054;28;19912;-78
2023/07/14 07:19:15;;;;;;;;;;;38.90;87.30;;;;;;5096759;28;19989;-80
2023/07/14 07:21:40;;;;;;;;;;;38.30;89.30;;;;;;5115052;28;19949;-79
2023/07/14 07:24:06;;;;;;;;;;;38.40;88.60;;;;;;5096581;28;19958;-78
2023/07/14 07:26:32;;;;;;;;;;;37.60;88.00;;;;;;5096288;28;20002;-80
2023/07/14 07:28:58;;;;;;;;;;;37.90;88.00;;;;;;5114745;28;20393;-78
2023/07/14 07:31:24;;;;;;;;;;;37.70;85.90;;;;;;5115045;28;19953;-79
2023/07/14 07:33:50;;;;;;;;;;;37.80;85.60;;;;;;5114752;28;20028;-79
2023/07/14 07:36:15;;;;;;;;;;;37.60;83.90;;;;;;5114623;28;20010;-80
2023/07/14 07:38:42;;;;;;;;;;;36.70;90.00;;;;;;5114725;28;20287;-79
2023/07/14 07:41:08;;;;;;;;;;;36.80;90.30;;;;;;5114722;28;19904;-80
2023/07/14 07:43:34;;;;;;;;;;;36.70;90.40;;;;;;5096374;28;20006;-80
2023/07/14 07:46:00;;;;;;;;;;;37.00;88.90;;;;;;5114757;28;19919;-79
2023/07/14 07:48:25;;;;;;;;;;;37.20;90.30;;;;;;5114350;28;19908;-79
2023/07/14 07:50:51;;;;;;;;;;;36.50;93.10;;;;;;5096131;28;19907;-79
2023/07/14 07:53:17;;;;;;;;;;;36.10;94.60;;;;;;5114236;28;19908;-79
2023/07/14 07:55:50;;;;;;;;;;;35.20;97.60;;;;;;5095638;28;19912;-80
2023/07/14 07:58:16;;;;;;;;;;;35.10;99.00;;;;;;5114844;28;19904;-79
2023/07/14 08:00:43;;;;;;;;;;;35.00;99.70;;;;;;5114472;28;19908;-79
2023/07/14 08:03:09;;;;;;;;;;;35.30;99.90;;;;;;5113731;28;19920;-78
2023/07/14 08:05:35;;;;;;;;;;;35.70;99.20;;;;;;5114290;28;19903;-79
2023/07/14 08:08:01;;;;;;;;;;;35.90;98.80;;;;;;5113932;28;19904;-80
2023/07/14 08:10:29;;;;;;;;;;;35.80;98.80;;;;;;5113714;28;19924;-79
2023/07/14 08:12:55;;;;;;;;;;;35.90;98.10;;;;;;5114053;28;19911;-80
2023/07/14 08:15:20;;;;;;;;;;;35.80;98.80;;;;;;5113833;28;20253;-79
2023/07/14 08:17:54;;;;;;;;;;;35.30;99.00;;;;;;5114499;28;20421;-79
2023/07/14 08:20:20;;;;;;;;;;;35.70;99.90;;;;;;5113741;28;19994;-80
2023/07/14 08:22:46;;;;;;;;;;;35.40;99.90;;;;;;5095543;28;19942;-79
2023/07/14 08:25:12;;;;;;;;;;;35.40;99.90;;;;;;5113797;28;19904;-78
2023/07/14 08:27:38;;;;;;;;;;;35.60;99.90;;;;;;5113713;28;19990;-78
2023/07/14 08:30:06;;;;;;;;;;;35.90;99.90;;;;;;5113684;28;20304;-78
2023/07/14 08:32:34;;;;;;;;;;;35.80;99.90;;;;;;5113740;28;19911;-78
2023/07/14 08:35:02;;;;;;;;;;;35.30;99.90;;;;;;5113117;28;19915;-78
2023/07/14 08:37:28;;;;;;;;;;;34.60;99.90;;;;;;5113531;28;20389;-79
2023/07/14 08:39:54;;;;;;;;;;;34.70;99.90;;;;;;5095314;28;20320;-80
2023/07/14 08:42:38;;;;;;;;;;;34.70;99.90;;;;;;5114107;28;19903;-79
2023/07/14 08:45:08;;;;;;;;;;;34.60;99.90;;;;;;5113835;28;19949;-78
2023/07/14 08:47:52;;;;;;;;;;;34.20;99.90;;;;;;5113524;28;19996;-78
2023/07/14 08:50:24;;;;;;;;;;;34.60;99.90;;;;;;5113993;28;19946;-77
2023/07/14 08:52:51;;;;;;;;;;;34.90;99.90;;;;;;5113208;28;19933;-78
2023/07/14 08:55:21;;;;;;;;;;;34.80;99.90;;;;;;5112871;28;19911;-79
2023/07/14 08:57:59;;;;;;;;;;;35.20;99.90;;;;;;5113456;28;19915;-78
2023/07/14 09:00:27;;;;;;;;;;;35.00;99.90;;;;;;5113321;28;19904;-78
2023/07/14 09:02:59;;;;;;;;;;;34.80;99.90;;;;;;5112916;28;20083;-77
2023/07/14 09:05:27;;;;;;;;;;;34.80;99.90;;;;;;5112984;28;20356;-78
2023/07/14 09:07:54;;;;;;;;;;;34.50;99.90;;;;;;5113152;28;19903;-78
2023/07/14 09:10:46;;;;;;;;;;;33.80;99.90;;;;;;5113367;28;20347;-79
2023/07/14 09:13:15;;;;;;;;;;;34.10;99.90;;;;;;5109256;28;19904;-79
2023/07/14 09:15:42;;;;;;;;;;;34.10;99.90;;;;;;5095440;28;19918;-78
2023/07/14 09:18:20;;;;;;;;;;;34.50;99.90;;;;;;5113152;28;19903;-78
2023/07/14 09:21:08;;;;;;;;;;;34.10;99.90;;;;;;5113035;28;19953;-79
2023/07/14 09:23:44;;;;;;;;;;;33.70;99.90;;;;;;5113212;28;19931;-79
2023/07/14 09:26:15;;;;;;;;;;;33.50;99.90;;;;;;5094403;28;19957;-79
2023/07/14 09:28:43;;;;;;;;;;;33.40;99.90;;;;;;5113311;28;19904;-78
2023/07/14 09:31:21;;;;;;;;;;;33.20;99.90;;;;;;5112927;28;19904;-79
2023/07/14 09:33:49;;;;;;;;;;;33.30;99.90;;;;;;5116675;28;19924;-79
2023/07/14 09:36:19;;;;;;;;;;;32.80;99.90;;;;;;5116646;28;19911;-79
2023/07/14 09:38:48;;;;;;;;;;;32.90;99.90;;;;;;5116614;28;19903;-78
2023/07/14 09:41:16;;;;;;;;;;;32.90;99.90;;;;;;5116469;28;19903;-78
2023/07/14 09:43:43;;;;;;;;;;;33.10;99.90;;;;;;5116720;28;19998;-79
2023/07/14 09:46:09;;;;;;;;;;;33.30;99.90;;;;;;5116665;28;20351;-80
2023/07/14 09:48:40;;;;;;;;;;;32.70;99.90;;;;;;5116407;28;19903;-79
2023/07/14 09:51:10;;;;;;;;;;;32.90;99.90;;;;;;5098000;28;20006;-79
2023/07/14 09:53:36;;;;;;;;;;;32.90;99.90;;;;;;5116702;28;20263;-79
2023/07/14 09:56:16;;;;;;;;;;;32.90;99.90;;;;;;5097927;28;19960;-79
2023/07/14 09:58:52;;;;;;;;;;;32.60;99.90;;;;;;5116999;28;19957;-79
2023/07/14 10:01:23;;;;;;;;;;;32.40;99.90;;;;;;5115969;28;19998;-80
2023/07/14 10:03:57;;;;;;;;;;;32.40;99.90;;;;;;5116560;28;20007;-79
2023/07/14 10:06:27;;;;;;;;;;;32.40;99.90;;;;;;5116405;28;19907;-80
2023/07/14 10:08:56;;;;;;;;;;;32.50;99.90;;;;;;5116318;28;19904;-78
2023/07/14 10:11:37;;;;;;;;;;;32.30;99.90;;;;;;5116319;28;19940;-78
2023/07/14 10:14:15;;;;;;;;;;;32.40;99.90;;;;;;5116650;28;19949;-79
2023/07/14 10:16:43;;;;;;;;;;;32.10;99.90;;;;;;5119995;28;19919;-78
2023/07/14 10:19:14;;;;;;;;;;;32.00;99.90;;;;;;5101328;28;19904;-77
2023/07/14 10:21:48;;;;;;;;;;;31.80;99.90;;;;;;5099215;28;19904;-78
2023/07/14 10:24:16;;;;;;;;;;;31.90;99.90;;;;;;5116580;28;19904;-79
2023/07/14 10:26:50;;;;;;;;;;;32.10;99.90;;;;;;5115978;28;19904;-79
2023/07/14 10:29:16;;;;;;;;;;;32.30;99.90;;;;;;5097930;28;20422;-79
2023/07/14 10:31:46;;;;;;;;;;;32.50;99.90;;;;;;5116390;28;19948;-79
2023/07/14 10:34:19;;;;;;;;;;;32.70;99.90;;;;;;5115701;28;19904;-80
2023/07/14 10:36:46;;;;;;;;;;;32.70;99.90;;;;;;5115674;28;19933;-79
2023/07/14 10:39:19;;;;;;;;;;;32.50;99.90;;;;;;5116614;28;19925;-78
2023/07/14 10:41:48;;;;;;;;;;;32.30;99.90;;;;;;5116016;28;19907;-80
2023/07/14 10:44:26;;;;;;;;;;;32.10;99.90;;;;;;5114310;28;19925;-79
2023/07/14 10:46:54;;;;;;;;;;;31.80;99.90;;;;;;5097293;28;19975;-78
2023/07/14 10:49:25;;;;;;;;;;;31.90;99.90;;;;;;5115687;28;19904;-79
2023/07/14 10:52:03;;;;;;;;;;;32.00;99.90;;;;;;5115393;28;19903;-80
2023/07/14 10:54:42;;;;;;;;;;;32.00;99.90;;;;;;5115760;28;19962;-79
2023/07/14 10:57:27;;;;;;;;;;;32.20;99.90;;;;;;5115274;28;20345;-80
2023/07/14 11:00:00;;;;;;;;;;;32.40;99.90;;;;;;5115728;28;19912;-79
2023/07/14 11:02:32;;;;;;;;;;;32.70;99.90;;;;;;5115108;28;19916;-80
2023/07/14 11:05:00;;;;;;;;;;;32.70;99.90;;;;;;5115327;28;19907;-78
2023/07/14 11:07:30;;;;;;;;;;;32.50;99.90;;;;;;5115207;28;20007;-79
2023/07/14 11:09:57;;;;;;;;;;;32.40;99.90;;;;;;5115316;28;19904;-79
2023/07/14 11:12:38;;;;;;;;;;;32.50;99.90;;;;;;5115025;28;19904;-79
2023/07/14 11:15:10;;;;;;;;;;;32.60;99.90;;;;;;5115300;28;19947;-79
2023/07/14 11:17:56;;;;;;;;;;;32.70;99.90;;;;;;5115274;28;20355;-79
2023/07/14 11:20:36;;;;;;;;;;;33.00;99.90;;;;;;5073234;28;20253;-79
2023/07/14 11:23:11;;;;;;;;;;;32.70;99.90;;;;;;5115341;28;19904;-79
2023/07/14 11:25:38;;;;;;;;;;;32.60;99.90;;;;;;5096500;28;20308;-78
2023/07/14 11:28:18;;;;;;;;;;;32.70;99.90;;;;;;5115036;28;20374;-79
2023/07/14 11:30:46;;;;;;;;;;;32.30;99.90;;;;;;5114956;28;19957;-80
2023/07/14 11:33:21;;;;;;;;;;;32.40;99.90;;;;;;5114792;28;19903;-80
2023/07/14 11:35:47;;;;;;;;;;;32.70;99.90;;;;;;5115210;28;19915;-79
2023/07/14 11:38:20;;;;;;;;;;;32.60;99.90;;;;;;5096317;28;19926;-79
2023/07/14 11:40:47;;;;;;;;;;;32.50;99.90;;;;;;5096143;28;19904;-78
2023/07/14 11:43:23;;;;;;;;;;;32.30;99.90;;;;;;5114445;28;19956;-79
2023/07/14 11:45:55;;;;;;;;;;;32.40;99.90;;;;;;5114576;28;19903;-79
2023/07/14 11:48:32;;;;;;;;;;;32.40;99.90;;;;;;5114320;28;19904;-79
2023/07/14 11:51:09;;;;;;;;;;;32.30;99.90;;;;;;5114522;28;20048;-78
2023/07/14 11:53:35;;;;;;;;;;;32.20;99.90;;;;;;5114758;28;19904;-78
2023/07/14 11:56:19;;;;;;;;;;;31.80;99.90;;;;;;5113962;28;19912;-80
2023/07/14 11:58:45;;;;;;;;;;;32.00;99.90;;;;;;5114186;28;20003;-79
2023/07/14 12:01:17;;;;;;;;;;;32.20;99.90;;;;;;5114034;28;19910;-79
2023/07/14 12:03:52;;;;;;;;;;;32.00;99.90;;;;;;5114205;28;19998;-78
2023/07/14 12:06:18;;;;;;;;;;;32.00;99.90;;;;;;5095718;28;20275;-78
2023/07/14 12:08:44;;;;;;;;;;;31.80;99.90;;;;;;5114055;28;20041;-79
2023/07/14 12:11:27;;;;;;;;;;;31.90;99.90;;;;;;5114092;28;19903;-78
2023/07/14 12:13:53;;;;;;;;;;;32.10;99.90;;;;;;5114020;28;20379;-79
2023/07/14 12:16:22;;;;;;;;;;;32.20;99.90;;;;;;5114216;28;19981;-79
2023/07/14 12:19:14;;;;;;;;;;;32.30;99.90;;;;;;5113680;28;19923;-78
2023/07/14 12:21:44;;;;;;;;;;;32.30;99.90;;;;;;5109735;28;19908;-79
2023/07/14 12:24:12;;;;;;;;;;;32.30;99.90;;;;;;5114461;28;19956;-78
2023/07/14 12:26:44;;;;;;;;;;;32.50;99.90;;;;;;5113989;28;19912;-79
2023/07/14 12:29:14;;;;;;;;;;;32.60;99.90;;;;;;5114276;28;20006;-80
2023/07/14 12:31:41;;;;;;;;;;;32.70;99.90;;;;;;5113565;28;20221;-78
2023/07/14 12:34:30;;;;;;;;;;;32.40;99.90;;;;;;5113391;28;19911;-79
2023/07/14 12:36:59;;;;;;;;;;;32.50;99.90;;;;;;5113934;28;19934;-79
2023/07/14 12:39:24;;;;;;;;;;;32.40;99.90;;;;;;5114005;28;20309;-79
2023/07/14 12:41:52;;;;;;;;;;;32.60;99.90;;;;;;5113722;28;20327;-78
2023/07/14 12:44:24;;;;;;;;;;;32.30;99.90;;;;;;5113582;28;19904;-79
2023/07/14 12:46:50;;;;;;;;;;;32.30;99.90;;;;;;5114044;28;19947;-79
2023/07/14 12:49:24;;;;;;;;;;;32.30;99.90;;;;;;5113498;28;19903;-79
2023/07/14 12:51:50;;;;;;;;;;;32.20;99.90;;;;;;5113938;28;20358;-79
2023/07/14 12:54:27;;;;;;;;;;;32.10;99.90;;;;;;5114117;28;19908;-79
2023/07/14 12:56:58;;;;;;;;;;;32.10;99.90;;;;;;5113539;28;20340;-80
2023/07/14 12:59:24;;;;;;;;;;;32.20;99.90;;;;;;5114200;28;19927;-80
2023/07/14 13:01:50;;;;;;;;;;;32.30;99.90;;;;;;5113495;28;19912;-79
2023/07/14 13:04:17;;;;;;;;;;;32.40;99.90;;;;;;5113579;28;19911;-80
2023/07/14 13:06:44;;;;;;;;;;;32.30;99.90;;;;;;5095701;28;19904;-78
2023/07/14 13:09:11;;;;;;;;;;;32.30;99.90;;;;;;5117514;28;20382;-77
2023/07/14 13:11:38;;;;;;;;;;;32.30;99.90;;;;;;5117784;28;19903;-79
2023/07/14 13:14:04;;;;;;;;;;;32.20;99.90;;;;;;5117472;28;20008;-78
2023/07/14 13:16:34;;;;;;;;;;;32.00;99.90;;;;;;5117354;28;20121;-79
2023/07/14 13:19:00;;;;;;;;;;;32.20;99.90;;;;;;5117381;28;19904;-78
2023/07/14 13:21:26;;;;;;;;;;;32.10;99.90;;;;;;5099062;28;19993;-79
2023/07/14 13:23:56;;;;;;;;;;;32.10;99.90;;;;;;5099238;28;19904;-79
2023/07/14 13:26:22;;;;;;;;;;;32.20;99.90;;;;;;5117373;28;19911;-79
2023/07/14 13:28:55;;;;;;;;;;;32.30;99.90;;;;;;5117383;28;20384;-80
2023/07/14 13:31:24;;;;;;;;;;;32.30;99.90;;;;;;5098734;28;19904;-79
2023/07/14 13:33:50;;;;;;;;;;;32.50;99.90;;;;;;5117188;28;19904;-79
2023/07/14 13:36:36;;;;;;;;;;;32.50;99.90;;;;;;5117842;28;19981;-78
2023/07/14 13:39:06;;;;;;;;;;;32.20;99.90;;;;;;5098825;28;19903;-79
2023/07/14 13:41:31;;;;;;;;;;;32.00;99.90;;;;;;5117098;28;19904;-79
2023/07/14 13:44:16;;;;;;;;;;;32.00;99.90;;;;;;5117737;28;20241;-80
2023/07/14 13:46:42;;;;;;;;;;;32.00;99.90;;;;;;5117123;28;19954;-80
2023/07/14 13:49:08;;;;;;;;;;;31.90;99.90;;;;;;5098843;28;19947;-79
2023/07/14 13:51:35;;;;;;;;;;;31.70;99.90;;;;;;5117145;28;20387;-78
2023/07/14 13:54:02;;;;;;;;;;;31.70;99.90;;;;;;5117167;28;20355;-79
2023/07/14 13:56:28;;;;;;;;;;;32.10;99.90;;;;;;5116868;28;19916;-79
2023/07/14 13:58:55;;;;;;;;;;;32.10;99.90;;;;;;5116670;28;19903;-79
2023/07/14 14:01:22;;;;;;;;;;;32.20;99.90;;;;;;5117077;28;19911;-79
2023/07/14 14:03:49;;;;;;;;;;;32.20;99.90;;;;;;5117181;28;20080;-80
2023/07/14 14:06:15;;;;;;;;;;;32.20;99.90;;;;;;5098283;28;20086;-78
2023/07/14 14:08:41;;;;;;;;;;;32.30;99.90;;;;;;5117028;28;20333;-78
2023/07/14 14:11:07;;;;;;;;;;;32.30;99.90;;;;;;5116518;28;19910;-79
2023/07/14 14:13:33;;;;;;;;;;;32.20;99.90;;;;;;5116851;28;19904;-79
2023/07/14 14:16:01;;;;;;;;;;;32.30;99.90;;;;;;5116202;28;19955;-79
2023/07/14 14:18:30;;;;;;;;;;;32.10;99.90;;;;;;5116477;28;19926;-79
2023/07/14 14:20:56;;;;;;;;;;;32.00;99.90;;;;;;5116262;28;20367;-79
2023/07/14 14:23:22;;;;;;;;;;;31.90;99.90;;;;;;5097914;28;19946;-80
2023/07/14 14:25:48;;;;;;;;;;;32.10;99.90;;;;;;5116772;28;19904;-79